Time;durP1;ratioP1;P1;durP2;ratioP2;P2;SDS_P1;SDS_P2;PMS_P1;PMS_P2;Temp;Humidity;BMP_temperature;BMP_pressure;BME280_temperature;BME280_humidity;BME280_pressure;Samples;Min_cycle;Max_cycle;Signal;HPM_P1;HPM_P2
2021/08/29 00:00:23;;;;;;;28.00;25.13;;;;;;;16.81;58.25;98788.25;5073910;28;20017;-51
2021/08/29 00:02:49;;;;;;;27.90;22.50;;;;;;;16.76;58.27;98780.19;5073811;28;20090;-52
2021/08/29 00:05:15;;;;;;;78.20;69.35;;;;;;;16.84;58.66;98781.69;5072403;28;20021;-51
2021/08/29 00:07:41;;;;;;;42.00;37.60;;;;;;;17.07;58.54;98775.44;5073596;28;20035;-51
2021/08/29 00:10:07;;;;;;;14.60;10.40;;;;;;;17.32;57.86;98770.53;5072361;28;20373;-51
2021/08/29 00:12:33;;;;;;;7.45;4.65;;;;;;;17.43;57.65;98757.44;5072270;28;20056;-52
2021/08/29 00:14:59;;;;;;;8.27;4.18;;;;;;;17.55;57.55;98752.84;5103858;28;20126;-50
2021/08/29 00:17:25;;;;;;;11.65;8.13;;;;;;;17.70;57.22;98754.88;5114418;28;20089;-50
2021/08/29 00:19:51;;;;;;;4.20;3.53;;;;;;;17.99;56.61;98760.88;5095779;28;20501;-49
2021/08/29 00:22:17;;;;;;;9.55;4.28;;;;;;;18.39;55.72;98756.28;5095734;28;20031;-50
2021/08/29 00:24:43;;;;;;;11.07;3.60;;;;;;;18.66;54.95;98757.09;5114585;28;20024;-49
2021/08/29 00:27:09;;;;;;;9.93;3.10;;;;;;;18.80;54.29;98759.38;5113870;28;20359;-50
2021/08/29 00:29:35;;;;;;;11.63;4.32;;;;;;;18.84;54.04;98753.31;5095550;28;20030;-49
2021/08/29 00:32:00;;;;;;;4.80;1.80;;;;;;;18.89;53.72;98756.00;5113832;28;20539;-49
2021/08/29 00:34:26;;;;;;;4.75;2.00;;;;;;;18.98;53.72;98747.56;5113847;28;20027;-49
2021/08/29 00:36:52;;;;;;;5.18;2.03;;;;;;;19.26;53.20;98749.13;5113773;28;20024;-49
2021/08/29 00:39:18;;;;;;;11.68;4.40;;;;;;;19.55;52.35;98746.91;5095434;28;20036;-50
2021/08/29 00:41:44;;;;;;;3.83;2.42;;;;;;;19.82;51.67;98746.81;5113653;28;20016;-50
2021/08/29 00:44:19;;;;;;;5.18;2.08;;;;;;;19.94;51.03;98762.56;5113697;28;20035;-49
2021/08/29 00:46:45;;;;;;;;;;;;;;;19.77;51.14;98756.63;5094797;28;20030;-50
2021/08/29 00:49:13;;;;;;;9.20;1.90;;;;;;;19.64;51.47;98761.34;5094691;28;19911;-50
2021/08/29 00:51:39;;;;;;;7.85;1.80;;;;;;;19.50;51.83;98757.53;5113434;28;20397;-50
2021/08/29 00:54:05;;;;;;;105.50;97.35;;;;;;;19.36;52.46;98765.16;5095128;28;20022;-49
2021/08/29 00:56:30;;;;;;;23.63;17.25;;;;;;;19.39;52.58;98753.19;5113353;28;20552;-50
2021/08/29 00:58:57;;;;;;;5.63;2.85;;;;;;;19.42;52.08;98757.97;5112033;28;20106;-49
2021/08/29 01:01:30;;;;;;;11.35;3.22;;;;;;;19.30;52.23;98759.00;5094952;28;20047;-50
2021/08/29 01:04:04;;;;;;;6.30;2.22;;;;;;;19.06;52.59;98761.19;5113298;28;20038;-49
2021/08/29 01:06:48;;;;;;;8.60;2.90;;;;;;;18.77;53.35;98765.97;5113131;28;20378;-50
2021/08/29 01:09:17;;;;;;;12.95;2.42;;;;;;;18.61;53.61;98758.91;5113158;28;20019;-49
2021/08/29 01:11:53;;;;;;;13.48;2.80;;;;;;;18.41;54.13;98770.13;5112987;28;20019;-49
2021/08/29 01:14:25;;;;;;;7.88;2.20;;;;;;;18.11;54.40;98769.53;5112822;28;20444;-50
2021/08/29 01:17:00;;;;;;;5.00;2.30;;;;;;;17.86;55.42;98755.94;5112945;28;20116;-49
2021/08/29 01:19:49;;;;;;;19.05;15.80;;;;;;;17.61;56.27;98745.75;5094740;28;20023;-49
2021/08/29 01:22:16;;;;;;;5.68;2.45;;;;;;;17.58;56.44;98755.00;5111659;28;20032;-49
2021/08/29 01:24:43;;;;;;;3.30;1.75;;;;;;;17.50;56.68;98747.44;5094608;28;20024;-49
2021/08/29 01:27:17;;;;;;;12.07;2.70;;;;;;;17.57;57.28;98751.53;5112729;28;20023;-50
2021/08/29 01:29:42;;;;;;;6.90;3.00;;;;;;;17.70;56.55;98757.53;5112861;28;20081;-49
2021/08/29 01:32:09;;;;;;;15.02;7.75;;;;;;;17.73;56.58;98757.06;5094408;28;20488;-50
2021/08/29 01:34:35;;;;;;;6.03;2.58;;;;;;;17.78;56.16;98767.75;5112720;28;20069;-50
2021/08/29 01:37:02;;;;;;;8.13;2.30;;;;;;;17.72;56.47;98756.25;5112647;28;20088;-49
2021/08/29 01:39:28;;;;;;;7.40;3.22;;;;;;;17.86;56.45;98754.06;5094300;28;20574;-49
2021/08/29 01:41:54;;;;;;;4.80;1.80;;;;;;;17.96;56.14;98748.88;5094237;28;20051;-49
2021/08/29 01:44:21;;;;;;;10.15;2.50;;;;;;;17.96;56.02;98737.47;5112554;28;20023;-49
2021/08/29 01:46:48;;;;;;;4.45;1.80;;;;;;;17.87;56.15;98752.25;5112400;28;20435;-49
2021/08/29 01:49:16;;;;;;;6.53;2.00;;;;;;;17.72;56.41;98748.28;5112515;28;20465;-49
2021/08/29 01:51:42;;;;;;;16.90;9.48;;;;;;;17.77;56.92;98747.56;5094068;28;20030;-49
2021/08/29 01:54:08;;;;;;;14.88;10.90;;;;;;;17.95;56.61;98751.81;5112453;28;20026;-50
2021/08/29 01:57:00;;;;;;;8.25;3.50;;;;;;;18.21;56.08;98760.06;5112371;28;20023;-50
2021/08/29 01:59:27;;;;;;;9.65;2.22;;;;;;;18.42;55.34;98761.91;5093904;28;20427;-50
2021/08/29 02:01:54;;;;;;;14.75;11.23;;;;;;;18.51;55.37;98759.59;5112300;28;20061;-50
2021/08/29 02:04:21;;;;;;;5.05;2.05;;;;;;;18.72;54.60;98761.41;5110967;28;20535;-49
2021/08/29 02:06:52;;;;;;;15.23;7.65;;;;;;;18.87;54.38;98774.06;5112138;28;20023;-50
2021/08/29 02:09:19;;;;;;;9.13;3.50;;;;;;;18.96;53.76;98767.25;5112224;28;20106;-49
2021/08/29 02:11:53;;;;;;;5.20;3.05;;;;;;;18.84;54.13;98769.25;5093834;28;20028;-49
2021/08/29 02:14:26;;;;;;;5.35;2.00;;;;;;;18.76;54.19;98767.03;5093657;28;20529;-49
2021/08/29 02:16:53;;;;;;;8.75;3.17;;;;;;;18.57;54.45;98766.56;5112209;28;20034;-50
2021/08/29 02:19:38;;;;;;;4.30;1.98;;;;;;;18.33;55.22;98774.84;5093878;28;20020;-50
2021/08/29 02:22:06;;;;;;;8.65;2.90;;;;;;;18.03;55.72;98772.63;5112194;28;20027;-50
2021/08/29 02:24:32;;;;;;;7.97;2.42;;;;;;;17.78;56.45;98773.84;5112069;28;20110;-49
2021/08/29 02:26:58;;;;;;;8.45;2.88;;;;;;;17.60;56.84;98768.03;5093749;28;20103;-50
2021/08/29 02:29:25;;;;;;;6.95;2.08;;;;;;;17.41;57.36;98778.09;5112051;28;20077;-49
2021/08/29 02:31:52;;;;;;;8.05;2.35;;;;;;;17.26;57.77;98776.81;5093672;28;20028;-50
2021/08/29 02:34:18;;;;;;;8.85;2.85;;;;;;;17.06;58.49;98777.28;5093708;28;20035;-49
2021/08/29 02:36:46;;;;;;;9.88;3.33;;;;;;;16.97;58.99;98776.88;5111955;28;20016;-49
2021/08/29 02:39:14;;;;;;;7.05;2.45;;;;;;;16.90;58.82;98773.59;5093711;28;20031;-49
2021/08/29 02:41:42;;;;;;;8.15;2.50;;;;;;;16.80;59.15;98778.66;5093572;28;20578;-51
2021/08/29 02:44:10;;;;;;;7.40;2.47;;;;;;;16.68;59.93;98777.91;5111884;28;20076;-51
2021/08/29 02:46:36;;;;;;;8.05;2.03;;;;;;;16.71;59.83;98786.19;5111954;28;20460;-51
2021/08/29 02:49:05;;;;;;;6.10;3.28;;;;;;;16.66;60.31;98783.47;5111838;28;20111;-51
2021/08/29 02:51:32;;;;;;;10.93;6.32;;;;;;;16.60;60.39;98786.25;5111832;28;20051;-51
2021/08/29 02:53:58;;;;;;;5.05;2.40;;;;;;;16.53;60.70;98786.41;5093632;28;20565;-52
2021/08/29 02:56:24;;;;;;;7.07;2.30;;;;;;;16.51;60.74;98789.28;5111766;28;20028;-51
2021/08/29 02:58:50;;;;;;;7.53;2.60;;;;;;;16.54;60.88;98793.28;5111771;28;20028;-51
2021/08/29 03:01:16;;;;;;;6.53;2.55;;;;;;;16.61;60.57;98790.53;5093473;28;20405;-51
2021/08/29 03:03:44;;;;;;;6.90;3.55;;;;;;;16.53;60.74;98778.44;5111715;28;20015;-52
2021/08/29 03:06:10;;;;;;;9.30;2.47;;;;;;;16.56;60.64;98789.38;5111614;28;20024;-51
2021/08/29 03:08:39;;;;;;;6.70;2.60;;;;;;;16.58;60.69;98782.00;5111673;28;20055;-51
2021/08/29 03:11:05;;;;;;;8.27;2.00;;;;;;;16.65;60.62;98786.34;5114541;28;20043;-51
2021/08/29 03:13:31;;;;;;;4.75;2.03;;;;;;;16.65;60.86;98781.06;5096827;28;20069;-52
2021/08/29 03:15:57;;;;;;;9.55;2.80;;;;;;;16.66;60.81;98780.81;5115429;28;20111;-51
2021/08/29 03:18:23;;;;;;;7.22;3.80;;;;;;;16.71;60.56;98774.81;5115334;28;20412;-51
2021/08/29 03:20:50;;;;;;;7.35;3.75;;;;;;;16.75;60.55;98775.94;5115313;28;20027;-51
2021/08/29 03:23:16;;;;;;;8.07;4.82;;;;;;;16.87;60.44;98770.63;5115208;28;20083;-51
2021/08/29 03:25:42;;;;;;;7.15;2.55;;;;;;;17.02;59.90;98780.66;5096805;28;20501;-52
2021/08/29 03:28:08;;;;;;;7.45;2.42;;;;;;;17.22;59.92;98780.19;5115200;28;20045;-52
2021/08/29 03:30:37;;;;;;;4.10;2.17;;;;;;;17.56;59.16;98773.81;5115035;28;20020;-51
2021/08/29 03:33:02;;;;;;;19.00;5.75;;;;;;;17.73;58.59;98770.34;5096725;28;20027;-51
2021/08/29 03:35:30;;;;;;;17.80;4.68;;;;;;;17.87;57.99;98773.47;5114989;28;20030;-51
2021/08/29 03:37:59;;;;;;;6.22;2.03;;;;;;;17.89;57.67;98779.34;5115001;28;20028;-49
2021/08/29 03:40:25;;;;;;;9.50;3.50;;;;;;;17.83;57.78;98774.97;5114888;28;20049;-50
2021/08/29 03:42:51;;;;;;;23.20;21.08;;;;;;;17.70;57.57;98774.25;5114844;28;20031;-49
2021/08/29 03:45:17;;;;;;;7.63;3.90;;;;;;;17.57;57.94;98778.06;5114783;28;20016;-49
2021/08/29 03:47:45;;;;;;;11.77;3.47;;;;;;;17.54;58.73;98770.59;5096418;28;20024;-49
2021/08/29 03:50:12;;;;;;;9.10;2.50;;;;;;;17.87;58.00;98774.28;5096376;28;20024;-50
2021/08/29 03:52:38;;;;;;;15.18;13.57;;;;;;;18.21;57.16;98779.47;5096322;28;20027;-50
2021/08/29 03:55:05;;;;;;;7.07;3.50;;;;;;;18.26;56.87;98770.75;5096296;28;20110;-50
2021/08/29 03:57:31;;;;;;;10.70;3.60;;;;;;;18.41;56.80;98772.78;5096253;28;20035;-49
2021/08/29 03:59:57;;;;;;;4.90;2.30;;;;;;;18.48;56.12;98778.72;5096184;28;20031;-49
2021/08/29 04:02:23;;;;;;;11.20;3.15;;;;;;;18.48;56.30;98770.75;5096172;28;20028;-49
2021/08/29 04:04:49;;;;;;;9.32;2.58;;;;;;;18.39;56.20;98781.00;5114478;28;20027;-49
2021/08/29 04:07:16;;;;;;;5.75;1.80;;;;;;;18.08;56.83;98777.97;5095973;28;20020;-49
2021/08/29 04:09:44;;;;;;;8.10;2.35;;;;;;;18.05;57.26;98773.19;5114319;28;20391;-49
2021/08/29 04:12:10;;;;;;;10.50;3.00;;;;;;;18.06;57.37;98777.41;5114294;28;20051;-49
2021/08/29 04:14:37;;;;;;;3.72;2.13;;;;;;;18.12;57.50;98770.31;5080602;28;20395;-49
2021/08/29 04:17:03;;;;;;;4.88;2.20;;;;;;;18.10;57.05;98775.88;5073628;28;20070;-49
2021/08/29 04:19:30;;;;;;;5.32;2.42;;;;;;;17.90;57.58;98779.06;5073552;28;20103;-49
2021/08/29 04:21:56;;;;;;;7.18;2.65;;;;;;;17.70;57.82;98776.91;5071088;28;20016;-49
2021/08/29 04:24:22;;;;;;;6.53;2.50;;;;;;;17.50;58.29;98771.31;5073506;28;20028;-50
2021/08/29 04:26:48;;;;;;;8.68;3.40;;;;;;;17.46;58.63;98775.50;5072030;28;20061;-49
2021/08/29 04:29:13;;;;;;;14.38;6.10;;;;;;;17.36;59.24;98776.97;5073342;28;20029;-49
2021/08/29 04:31:48;;;;;;;4.88;2.60;;;;;;;17.47;59.22;98775.28;5072049;28;20025;-49
2021/08/29 04:34:14;;;;;;;9.98;3.42;;;;;;;17.52;58.80;98778.00;5073196;28;20089;-49
2021/08/29 04:36:40;;;;;;;7.70;2.58;;;;;;;17.42;59.24;98790.31;5073196;28;20043;-50
2021/08/29 04:39:08;;;;;;;11.00;3.03;;;;;;;17.39;59.39;98782.84;5071860;28;20021;-51
2021/08/29 04:41:35;;;;;;;10.40;7.00;;;;;;;17.45;59.35;98785.34;5073309;28;20130;-50
2021/08/29 04:44:04;;;;;;;5.00;2.75;;;;;;;17.26;59.42;98771.50;5073048;28;20121;-49
2021/08/29 04:46:30;;;;;;;6.20;2.70;;;;;;;17.07;60.13;98775.44;5072918;28;20546;-48
2021/08/29 04:48:56;;;;;;;3.58;2.38;;;;;;;16.92;60.48;98768.84;5071642;28;20121;-49
2021/08/29 04:51:21;;;;;;;8.23;2.60;;;;;;;16.82;60.69;98783.75;5072906;28;20021;-49
2021/08/29 04:53:47;;;;;;;8.00;3.30;;;;;;;16.62;61.32;98776.22;5072904;28;20040;-52
2021/08/29 04:56:13;;;;;;;15.77;4.85;;;;;;;16.51;62.08;98776.03;5072774;28;20112;-51
2021/08/29 04:58:38;;;;;;;5.28;2.95;;;;;;;16.45;62.24;98778.84;5072776;28;20029;-52
2021/08/29 05:01:04;;;;;;;11.77;5.78;;;;;;;16.51;62.48;98777.88;5072685;28;20031;-52
2021/08/29 05:03:30;;;;;;;10.93;3.40;;;;;;;16.63;62.44;98781.28;5072668;28;20054;-52
2021/08/29 05:05:57;;;;;;;5.97;3.13;;;;;;;16.80;61.72;98777.88;5072525;28;20489;-52
2021/08/29 05:08:23;;;;;;;107.57;84.85;;;;;;;16.79;61.54;98777.06;5071241;28;20025;-51
2021/08/29 05:10:49;;;;;;;17.60;14.57;;;;;;;16.66;61.65;98780.00;5071230;28;20028;-51
2021/08/29 05:13:14;;;;;;;161.75;145.23;;;;;;;16.69;62.19;98787.50;5071634;28;20048;-53
2021/08/29 05:15:40;;;;;;;13.10;10.13;;;;;;;16.96;61.55;98788.53;5113028;28;20073;-52
2021/08/29 05:18:06;;;;;;;138.93;125.65;;;;;;;17.01;60.83;98787.03;5111714;28;20114;-52
2021/08/29 05:20:31;;;;;;;14.15;5.30;;;;;;;17.21;60.79;98800.59;5112925;28;20023;-52
2021/08/29 05:22:57;;;;;;;14.10;9.15;;;;;;;17.46;59.83;98794.09;5112958;28;20037;-52
2021/08/29 05:25:23;;;;;;;12.80;4.47;;;;;;;17.53;59.32;98794.75;5094578;28;20027;-49
2021/08/29 05:27:48;;;;;;;9.23;4.10;;;;;;;17.40;59.28;98801.16;5112739;28;20059;-49
2021/08/29 05:30:14;;;;;;;7.97;6.20;;;;;;;17.25;59.73;98801.72;5112771;28;20078;-49
2021/08/29 05:32:40;;;;;;;4.80;2.95;;;;;;;17.12;60.20;98799.38;5094116;28;20545;-49
2021/08/29 05:35:06;;;;;;;13.27;3.25;;;;;;;17.03;60.64;98808.78;5094363;28;20114;-49
2021/08/29 05:37:31;;;;;;;22.52;20.30;;;;;;;16.99;60.85;98812.97;5112701;28;20059;-49
2021/08/29 05:39:57;;;;;;;6.55;3.10;;;;;;;17.10;61.00;98806.78;5112714;28;20047;-50
2021/08/29 05:42:23;;;;;;;8.65;3.13;;;;;;;17.45;60.16;98811.06;5112556;28;20031;-49
2021/08/29 05:44:48;;;;;;;5.07;2.90;;;;;;;17.60;59.14;98811.28;5112611;28;20544;-49
2021/08/29 05:47:14;;;;;;;6.57;3.00;;;;;;;17.54;58.89;98804.28;5112408;28;20509;-49
2021/08/29 05:49:40;;;;;;;7.13;3.35;;;;;;;17.46;59.00;98807.34;5112492;28;20145;-50
2021/08/29 05:52:06;;;;;;;8.93;3.50;;;;;;;17.50;58.87;98800.50;5094175;28;20028;-49
2021/08/29 05:54:32;;;;;;;9.75;4.88;;;;;;;17.56;58.99;98812.81;5077301;28;20027;-49
2021/08/29 05:56:58;;;;;;;5.25;3.05;;;;;;;17.62;59.09;98819.00;5094078;28;20024;-49
2021/08/29 05:59:24;;;;;;;5.68;2.90;;;;;;;17.72;58.54;98817.28;5094078;28;20035;-49
2021/08/29 06:01:49;;;;;;;8.77;3.25;;;;;;;17.80;58.51;98815.28;5112344;28;20110;-48
2021/08/29 06:04:15;;;;;;;7.15;6.55;;;;;;;17.97;58.13;98810.78;5112286;28;20018;-49
2021/08/29 06:06:41;;;;;;;6.32;2.92;;;;;;;18.10;57.72;98798.97;5093918;28;20122;-49
2021/08/29 06:09:06;;;;;;;8.02;2.97;;;;;;;18.24;57.40;98812.72;5112231;28;20043;-49
2021/08/29 06:11:33;;;;;;;7.47;3.67;;;;;;;18.45;57.07;98808.44;5093887;28;20030;-49
2021/08/29 06:13:59;;;;;;;5.00;3.40;;;;;;;18.50;56.63;98811.16;5083851;28;20045;-49
2021/08/29 06:16:25;;;;;;;4.43;3.65;;;;;;;18.73;56.42;98816.19;5071909;28;20050;-49
2021/08/29 06:18:51;;;;;;;8.35;4.40;;;;;;;18.87;55.41;98813.94;5070326;28;20028;-49
2021/08/29 06:21:19;;;;;;;4.57;3.78;;;;;;;18.76;55.29;98807.72;5071568;28;20555;-49
2021/08/29 06:23:44;;;;;;;6.47;4.28;;;;;;;18.61;55.73;98809.41;5071599;28;20470;-49
2021/08/29 06:26:11;;;;;;;9.27;6.57;;;;;;;18.69;55.66;98806.28;5071425;28;20115;-49
2021/08/29 06:28:36;;;;;;;7.85;4.10;;;;;;;18.76;55.35;98813.03;5071494;28;20540;-49
2021/08/29 06:31:02;;;;;;;6.65;5.18;;;;;;;18.72;55.46;98811.13;5071817;28;20024;-49
2021/08/29 06:33:28;;;;;;;10.27;7.15;;;;;;;18.63;55.88;98813.41;5071444;28;20488;-49
2021/08/29 06:35:55;;;;;;;11.07;7.20;;;;;;;18.14;56.71;98810.72;5070111;28;20422;-49
2021/08/29 06:38:22;;;;;;;9.85;7.00;;;;;;;17.95;57.71;98803.06;5071412;28;20029;-49
2021/08/29 06:40:47;;;;;;;10.48;5.50;;;;;;;18.05;57.96;98812.19;5070134;28;20585;-49
2021/08/29 06:43:14;;;;;;;11.35;6.57;;;;;;;18.26;57.54;98813.25;5071620;28;20112;-49
2021/08/29 06:45:41;;;;;;;5.25;4.75;;;;;;;18.45;56.77;98811.91;5073982;28;20103;-49
2021/08/29 06:48:09;;;;;;;7.43;5.68;;;;;;;18.57;56.74;98811.75;5075192;28;20029;-49
2021/08/29 06:50:35;;;;;;;7.28;5.30;;;;;;;18.62;56.23;98819.78;5075201;28;20139;-49
2021/08/29 06:53:00;;;;;;;680.72;555.97;;;;;;;18.69;56.04;98815.09;5073787;28;20123;-49
2021/08/29 06:55:26;;;;;;;174.85;134.18;;;;;;;19.00;55.86;98825.25;5075091;28;20052;-49
2021/08/29 06:57:52;;;;;;;1623.82;918.60;;;;;;;19.26;54.96;98816.44;5073757;28;20036;-48
2021/08/29 07:00:18;;;;;;;899.15;681.10;;;;;;;19.43;54.82;98812.84;5074987;28;20439;-49
2021/08/29 07:02:43;;;;;;;710.25;562.55;;;;;;;19.62;54.14;98814.03;5075011;28;20069;-49
2021/08/29 07:05:09;;;;;;;166.88;120.55;;;;;;;19.70;53.75;98810.91;5075193;28;20479;-49
2021/08/29 07:07:35;;;;;;;36.88;32.97;;;;;;;19.86;53.36;98805.69;5074782;28;20031;-49
2021/08/29 07:10:01;;;;;;;29.65;26.45;;;;;;;20.01;52.93;98808.44;5074777;28;20020;-49
2021/08/29 07:12:27;;;;;;;11.90;8.68;;;;;;;20.08;52.67;98808.19;5074854;28;20494;-49
2021/08/29 07:14:52;;;;;;;18.45;13.93;;;;;;;20.08;52.44;98801.03;5102738;28;20615;-49
2021/08/29 07:17:21;;;;;;;13.52;11.55;;;;;;;19.95;52.86;98809.47;5115354;28;20024;-49
2021/08/29 07:19:47;;;;;;;8.13;5.80;;;;;;;19.88;53.10;98804.38;5115371;28;20070;-49
2021/08/29 07:22:13;;;;;;;5.70;4.50;;;;;;;19.93;52.80;98804.38;5115266;28;20460;-49
2021/08/29 07:24:39;;;;;;;8.77;5.35;;;;;;;19.75;53.22;98802.97;5115267;28;20023;-49
2021/08/29 07:27:05;;;;;;;11.48;6.78;;;;;;;19.71;53.54;98803.75;5115114;28;20026;-49
2021/08/29 07:29:31;;;;;;;7.45;5.90;;;;;;;19.72;53.84;98803.50;5115120;28;20028;-50
2021/08/29 07:31:58;;;;;;;10.05;5.97;;;;;;;19.68;53.97;98805.03;5115088;28;20016;-50
2021/08/29 07:34:24;;;;;;;7.38;5.20;;;;;;;19.58;54.47;98807.63;5096676;28;20496;-49
2021/08/29 07:36:50;;;;;;;6.93;5.57;;;;;;;19.54;54.57;98804.66;5115033;28;20031;-49
2021/08/29 07:39:15;;;;;;;6.93;4.43;;;;;;;19.56;54.67;98802.56;5114943;28;20438;-49
2021/08/29 07:41:41;;;;;;;8.30;4.25;;;;;;;19.82;54.35;98809.91;5114882;28;20024;-49
2021/08/29 07:44:07;;;;;;;5.45;4.05;;;;;;;19.92;53.81;98809.97;5096507;28;20485;-49
2021/08/29 07:46:33;;;;;;;10.57;9.50;;;;;;;19.89;53.78;98805.19;5114741;28;20485;-49
2021/08/29 07:48:59;;;;;;;9.10;5.32;;;;;;;19.99;53.30;98810.56;5114731;28;20055;-49
2021/08/29 07:51:24;;;;;;;5.93;4.20;;;;;;;19.97;53.46;98806.56;5114739;28;20077;-49
2021/08/29 07:53:50;;;;;;;7.15;5.30;;;;;;;20.07;53.28;98807.41;5114661;28;20039;-49
2021/08/29 07:56:16;;;;;;;6.93;4.38;;;;;;;19.99;53.03;98809.75;5095965;28;20028;-49
2021/08/29 07:58:41;;;;;;;6.40;4.53;;;;;;;19.90;53.56;98812.09;5114535;28;20023;-49
2021/08/29 08:01:07;;;;;;;5.22;4.43;;;;;;;19.92;53.30;98812.63;5096195;28;20027;-49
2021/08/29 08:03:33;;;;;;;5.82;3.67;;;;;;;19.94;53.37;98811.34;5096184;28;20115;-49
2021/08/29 08:05:58;;;;;;;6.22;3.83;;;;;;;19.88;53.11;98817.69;5095965;28;20023;-49
2021/08/29 08:08:24;;;;;;;5.38;4.03;;;;;;;19.84;53.21;98813.13;5096044;28;20035;-49
2021/08/29 08:10:50;;;;;;;5.97;3.85;;;;;;;19.85;53.32;98820.06;5114335;28;20023;-49
2021/08/29 08:13:15;;;;;;;8.77;3.60;;;;;;;19.87;53.23;98821.41;5113703;28;20031;-51
2021/08/29 08:15:41;;;;;;;4.43;3.25;;;;;;;20.02;53.26;98815.38;5095931;28;20065;-49
2021/08/29 08:18:07;;;;;;;5.18;3.30;;;;;;;20.13;53.03;98811.69;5095941;28;20492;-49
2021/08/29 08:20:32;;;;;;;5.80;3.75;;;;;;;20.18;52.36;98807.44;5114161;28;20508;-49
2021/08/29 08:22:58;;;;;;;9.85;3.40;;;;;;;20.04;52.71;98812.44;5095792;28;20032;-49
2021/08/29 08:25:24;;;;;;;5.85;3.53;;;;;;;20.15;52.88;98820.22;5114066;28;20024;-49
2021/08/29 08:27:49;;;;;;;7.03;3.78;;;;;;;20.30;52.30;98818.69;5095650;28;20486;-49
2021/08/29 08:30:15;;;;;;;5.90;3.45;;;;;;;20.54;51.78;98827.03;5113949;28;20015;-49
2021/08/29 08:32:41;;;;;;;6.70;3.47;;;;;;;20.81;51.12;98832.22;5113894;28;20036;-49
2021/08/29 08:35:07;;;;;;;5.13;3.25;;;;;;;20.95;50.46;98821.84;5113833;28;20020;-49
2021/08/29 08:37:33;;;;;;;4.60;3.40;;;;;;;20.92;50.70;98822.34;5095557;28;20121;-49
2021/08/29 08:39:59;;;;;;;5.70;3.55;;;;;;;20.87;50.36;98825.03;5095379;28;20062;-50
2021/08/29 08:42:26;;;;;;;4.32;3.55;;;;;;;20.97;49.79;98821.53;5095387;28;20501;-49
2021/08/29 08:44:52;;;;;;;4.05;2.85;;;;;;;21.08;49.69;98820.50;5095347;28;20497;-49
2021/08/29 08:47:20;;;;;;;4.35;3.20;;;;;;;21.22;49.37;98820.78;5095539;28;20077;-49
2021/08/29 08:49:46;;;;;;;5.18;3.30;;;;;;;21.32;49.46;98820.78;5113596;28;20045;-49
2021/08/29 08:52:32;;;;;;;6.50;5.85;;;;;;;21.47;49.29;98820.81;5113547;28;20064;-49
2021/08/29 08:55:00;;;;;;;5.95;3.65;;;;;;;21.73;48.55;98821.56;5113561;28;20023;-49
2021/08/29 08:57:27;;;;;;;7.97;4.18;;;;;;;21.63;48.47;98818.94;5095184;28;20401;-49
2021/08/29 08:59:53;;;;;;;15.65;5.20;;;;;;;21.53;49.13;98816.25;5113406;28;20030;-49
2021/08/29 09:02:23;;;;;;;3.83;3.38;;;;;;;21.51;48.59;98823.72;5113650;28;20028;-49
2021/08/29 09:04:51;;;;;;;4.40;3.20;;;;;;;21.89;48.31;98819.69;5113344;28;20031;-49
2021/08/29 09:07:17;;;;;;;8.18;3.10;;;;;;;22.59;46.69;98805.50;5112777;28;20028;-50
2021/08/29 09:09:43;;;;;;;5.15;3.53;;;;;;;22.70;45.39;98807.06;5094945;28;20560;-49
2021/08/29 09:12:09;;;;;;;6.30;4.75;;;;;;;23.05;45.14;98809.78;5113141;28;20107;-49
2021/08/29 09:14:44;;;;;;;5.10;3.40;;;;;;;23.80;43.46;98808.63;5112634;28;20047;-49
2021/08/29 09:17:24;;;;;;;4.50;2.90;;;;;;;24.78;41.32;98806.34;5113150;28;20701;-49
2021/08/29 09:19:49;;;;;;;5.43;2.90;;;;;;;25.00;40.36;98813.81;5094828;28;20080;-49
2021/08/29 09:22:26;;;;;;;7.97;3.17;;;;;;;24.71;41.02;98809.41;5113010;28;20023;-49
2021/08/29 09:24:53;;;;;;;3.72;2.83;;;;;;;24.70;40.52;98812.38;5077839;28;20035;-49
2021/08/29 09:27:23;;;;;;;3.58;2.65;;;;;;;24.82;40.69;98803.88;5094569;28;20061;-50
2021/08/29 09:29:51;;;;;;;5.70;2.80;;;;;;;25.03;40.23;98804.34;5112893;28;20024;-50
2021/08/29 09:32:19;;;;;;;4.15;2.72;;;;;;;25.35;39.89;98802.81;5112793;28;20015;-49
2021/08/29 09:35:08;;;;;;;4.57;2.70;;;;;;;25.43;39.68;98802.13;5112766;28;20020;-49
2021/08/29 09:37:38;;;;;;;3.10;2.80;;;;;;;25.14;39.85;98796.94;5112813;28;20027;-50
2021/08/29 09:40:17;;;;;;;4.13;2.80;;;;;;;24.89;40.72;98794.38;5112968;28;20031;-49
2021/08/29 09:42:44;;;;;;;3.22;2.70;;;;;;;24.74;40.69;98797.28;5112661;28;20015;-49
2021/08/29 09:45:25;;;;;;;7.03;2.97;;;;;;;24.35;40.91;98795.66;5112542;28;20351;-50
2021/08/29 09:47:53;;;;;;;5.82;3.40;;;;;;;23.83;41.76;98791.97;5094253;28;20409;-49
2021/08/29 09:50:22;;;;;;;8.05;3.45;;;;;;;23.32;42.58;98799.41;5112477;28;20054;-49
2021/08/29 09:52:48;;;;;;;6.85;3.60;;;;;;;22.88;43.74;98794.91;5094177;28;20120;-49
2021/08/29 09:55:26;;;;;;;4.65;3.13;;;;;;;22.65;44.65;98799.03;5094072;28;20077;-49
2021/08/29 09:57:51;;;;;;;4.85;3.30;;;;;;;22.65;45.02;98798.25;5112436;28;20405;-49
2021/08/29 10:00:17;;;;;;;5.90;3.38;;;;;;;22.67;45.32;98804.13;5094148;28;20027;-49
2021/08/29 10:02:43;;;;;;;4.25;3.22;;;;;;;22.83;45.12;98792.25;5112337;28;20031;-49
2021/08/29 10:05:13;;;;;;;4.15;3.13;;;;;;;23.19;43.69;98789.34;5093944;28;20570;-49
2021/08/29 10:07:59;;;;;;;5.47;3.03;;;;;;;23.69;43.16;98783.78;5112188;28;20030;-49
2021/08/29 10:10:28;;;;;;;3.42;2.97;;;;;;;23.82;42.47;98782.31;5094015;28;20039;-50
2021/08/29 10:12:56;;;;;;;5.38;3.13;;;;;;;23.79;42.01;98783.69;5093857;28;20050;-49
2021/08/29 10:15:22;;;;;;;8.20;2.92;;;;;;;23.65;42.43;98786.22;5072849;28;20115;-49
2021/08/29 10:17:50;;;;;;;5.35;2.65;;;;;;;23.71;42.69;98781.63;5071566;28;20100;-49
2021/08/29 10:20:20;;;;;;;4.00;2.60;;;;;;;23.90;42.03;98779.03;5075145;28;20020;-49
2021/08/29 10:22:49;;;;;;;3.95;2.97;;;;;;;24.25;41.60;98779.69;5075779;28;20020;-49
2021/08/29 10:25:17;;;;;;;5.30;3.85;;;;;;;24.55;41.11;98775.00;5075738;28;20020;-49
2021/08/29 10:27:54;;;;;;;4.80;2.72;;;;;;;24.69;40.38;98765.94;5075652;28;20032;-49
2021/08/29 10:30:20;;;;;;;3.20;2.90;;;;;;;24.68;40.33;98779.66;5075743;28;20499;-49
2021/08/29 10:32:49;;;;;;;3.63;2.40;;;;;;;24.85;40.35;98771.06;5074569;28;20492;-49
2021/08/29 10:35:16;;;;;;;6.95;2.72;;;;;;;25.40;39.62;98767.78;5075575;28;20024;-50
2021/08/29 10:37:45;;;;;;;4.55;2.55;;;;;;;25.74;38.67;98761.25;5075509;28;20048;-50
2021/08/29 10:40:14;;;;;;;3.28;2.40;;;;;;;25.91;38.28;98759.56;5075450;28;20025;-49
2021/08/29 10:42:43;;;;;;;7.03;2.53;;;;;;;26.13;38.17;98754.59;5075440;28;20020;-49
2021/08/29 10:45:11;;;;;;;4.50;2.30;;;;;;;26.45;37.55;98751.72;5074000;28;20078;-49
2021/08/29 10:47:38;;;;;;;2.88;2.22;;;;;;;26.50;37.00;98748.09;5074038;28;20073;-50
2021/08/29 10:50:07;;;;;;;5.70;2.22;;;;;;;26.51;37.16;98747.81;5075281;28;20028;-49
2021/08/29 10:52:36;;;;;;;5.72;2.50;;;;;;;26.45;36.57;98740.94;5075270;28;20044;-50
2021/08/29 10:55:08;;;;;;;3.50;2.42;;;;;;;26.26;37.25;98743.03;5075184;28;20028;-50
2021/08/29 10:57:36;;;;;;;2.80;2.33;;;;;;;26.07;37.49;98740.44;5075211;28;20032;-50
2021/08/29 11:00:04;;;;;;;2.47;2.00;;;;;;;26.02;37.70;98741.34;5075024;28;20553;-49
2021/08/29 11:02:49;;;;;;;3.60;2.30;;;;;;;25.90;38.16;98743.75;5075097;28;20151;-49
2021/08/29 11:05:28;;;;;;;2.67;2.42;;;;;;;25.71;37.90;98755.38;5073760;28;20037;-49
2021/08/29 11:07:56;;;;;;;4.57;2.28;;;;;;;26.19;36.99;98740.72;5074877;28;20501;-50
2021/08/29 11:10:41;;;;;;;3.65;2.20;;;;;;;26.35;36.42;98743.09;5074830;28;20037;-49
2021/08/29 11:13:32;;;;;;;8.50;3.33;;;;;;;26.32;36.72;98741.81;5073509;28;20021;-49
2021/08/29 11:16:09;;;;;;;2.35;2.10;;;;;;;26.67;36.07;98736.72;5074785;28;20465;-49
2021/08/29 11:18:59;;;;;;;5.43;2.17;;;;;;;27.54;35.38;98721.06;5074786;28;20024;-49
2021/08/29 11:21:53;;;;;;;2.20;1.90;;;;;;;28.30;33.52;98722.69;5074640;28;20508;-49
2021/08/29 11:24:59;;;;;;;4.60;2.40;;;;;;;28.53;33.38;98726.06;5074602;28;20021;-50
2021/08/29 11:27:33;;;;;;;4.70;1.92;;;;;;;29.71;31.67;98718.63;5074563;28;20029;-50
2021/08/29 11:29:59;;;;;;;;;;;;;;;30.95;31.30;98718.19;5074635;28;20040;-50
2021/08/29 11:32:39;;;;;;;3.83;2.08;;;;;;;31.87;28.41;98708.00;5072817;28;20270;-50
2021/08/29 11:35:15;;;;;;;2.63;1.70;;;;;;;31.90;28.31;98707.34;5074483;28;20029;-50